createdAt,value
2023-02-28T00:00:53.738Z,64.00
2023-02-28T00:05:57.477Z,53.70
2023-02-28T00:11:12.288Z,65.00
2023-02-28T00:16:19.375Z,58.70
2023-02-28T00:21:23.226Z,49.40
2023-02-28T00:26:27.238Z,51.20
2023-02-28T00:31:33.728Z,53.20
2023-02-28T00:36:37.537Z,62.30
2023-02-28T00:41:41.876Z,47.80
2023-02-28T00:46:48.778Z,48.90
2023-02-28T00:51:52.823Z,50.90
2023-02-28T00:56:57.121Z,50.10
2023-02-28T01:02:02.724Z,47.50
2023-02-28T01:07:06.575Z,37.50
2023-02-28T01:12:11.055Z,40.20
2023-02-28T01:17:14.681Z,49.00
2023-02-28T01:22:19.401Z,51.40
2023-02-28T01:27:23.069Z,43.90
2023-02-28T01:32:27.417Z,41.30
2023-02-28T01:37:31.047Z,46.50
2023-02-28T01:42:38.016Z,46.80
2023-02-28T01:47:45.738Z,46.60
2023-02-28T01:52:50.139Z,51.60
2023-02-28T01:57:56.942Z,43.60
2023-02-28T02:03:10.726Z,42.10
2023-02-28T02:08:27.113Z,36.30
2023-02-28T02:13:33.874Z,43.20
2023-02-28T02:19:15.244Z,39.70
2023-02-28T02:24:52.298Z,43.50
2023-02-28T02:30:43.133Z,34.10
2023-02-28T02:36:08.920Z,33.70
2023-02-28T02:41:26.075Z,38.10
2023-02-28T02:46:36.602Z,38.60
2023-02-28T02:51:42.329Z,33.50
2023-02-28T02:56:48.908Z,35.80
2023-02-28T03:01:58.941Z,36.70
2023-02-28T03:07:02.768Z,34.50
2023-02-28T03:12:10.742Z,37.90
2023-02-28T03:17:24.845Z,33.40
2023-02-28T03:22:58.853Z,44.00
2023-02-28T03:28:17.880Z,35.00
2023-02-28T03:33:40.898Z,39.60
2023-02-28T03:39:04.167Z,36.60
2023-02-28T03:44:16.629Z,35.30
2023-02-28T03:49:24.199Z,32.10
2023-02-28T03:54:33.428Z,34.90
2023-02-28T04:00:00.165Z,36.70
2023-02-28T04:05:04.762Z,45.20
2023-02-28T04:10:08.930Z,46.70
2023-02-28T04:15:12.732Z,55.00
2023-02-28T04:20:16.867Z,39.30
2023-02-28T04:25:21.374Z,35.70
2023-02-28T04:30:27.305Z,32.50
2023-02-28T04:35:31.828Z,38.30
2023-02-28T04:40:37.191Z,36.00
2023-02-28T04:45:42.432Z,37.40
2023-02-28T04:50:46.481Z,34.50
2023-02-28T04:55:51.660Z,37.90
2023-02-28T05:01:13.920Z,39.40
2023-02-28T05:06:19.240Z,43.80
2023-02-28T05:11:26.855Z,41.10
2023-02-28T05:16:32.513Z,46.90
2023-02-28T05:21:38.926Z,57.40
2023-02-28T05:26:44.022Z,48.00
2023-02-28T05:31:48.821Z,52.80
2023-02-28T05:36:52.679Z,182.50
2023-02-28T05:41:56.470Z,51.00
2023-02-28T05:47:00.108Z,82.30
2023-02-28T05:52:04.881Z,118.50
2023-02-28T05:57:18.920Z,75.60
2023-02-28T06:02:28.026Z,58.00
2023-02-28T06:07:31.864Z,54.20
2023-02-28T06:12:36.442Z,71.20
2023-02-28T06:17:41.486Z,56.70
2023-02-28T06:22:45.692Z,42.90
2023-02-28T06:27:49.981Z,46.50
2023-02-28T06:32:54.644Z,45.10
2023-02-28T06:37:58.748Z,41.60
2023-02-28T06:43:03.381Z,40.40
2023-02-28T06:48:07.550Z,42.50
2023-02-28T06:53:11.512Z,33.10
2023-02-28T06:58:20.337Z,43.50
2023-02-28T07:03:25.452Z,36.00
2023-02-28T07:08:29.463Z,36.00
2023-02-28T07:13:33.225Z,33.60
2023-02-28T07:18:38.058Z,29.00
2023-02-28T07:23:43.079Z,23.00
2023-02-28T07:28:48.966Z,23.30
2023-02-28T07:33:54.941Z,18.70
2023-02-28T07:38:59.973Z,17.10
2023-02-28T07:44:04.908Z,18.60
2023-02-28T07:49:09.774Z,17.60
2023-02-28T07:54:14.054Z,16.00
2023-02-28T07:59:18.564Z,14.60
2023-02-28T08:04:23.154Z,14.20
2023-02-28T08:09:28.239Z,14.20
2023-02-28T08:14:32.249Z,12.20
2023-02-28T08:19:35.983Z,15.00
2023-02-28T08:24:41.407Z,13.70
2023-02-28T08:29:45.196Z,13.60
2023-02-28T08:34:49.278Z,13.00
2023-02-28T08:39:56.224Z,15.40
2023-02-28T08:45:00.317Z,14.80
2023-02-28T08:50:06.709Z,12.90
2023-02-28T08:55:11.419Z,13.00
2023-02-28T09:00:15.828Z,13.90
2023-02-28T09:05:19.441Z,9.80
2023-02-28T09:10:23.063Z,13.50
2023-02-28T09:15:26.605Z,13.20
2023-02-28T09:20:30.142Z,12.40
2023-02-28T09:25:34.288Z,13.10
2023-02-28T09:30:38.156Z,11.90
2023-02-28T09:35:41.855Z,17.30
2023-02-28T09:41:14.669Z,13.10
2023-02-28T09:46:42.082Z,13.10
2023-02-28T09:51:50.699Z,11.70
2023-02-28T09:56:56.872Z,12.80
2023-02-28T10:02:39.524Z,12.90
2023-02-28T10:08:00.913Z,13.60
2023-02-28T10:13:08.528Z,12.20
2023-02-28T10:18:20.371Z,12.30
2023-02-28T10:23:26.730Z,10.10
2023-02-28T10:28:32.226Z,9.40
2023-02-28T10:33:37.223Z,10.80
2023-02-28T10:38:42.257Z,13.80
2023-02-28T10:43:49.202Z,12.10
2023-02-28T10:49:04.476Z,11.60
2023-02-28T10:54:18.022Z,14.70
2023-02-28T10:59:32.354Z,13.30
2023-02-28T11:04:39.234Z,12.40
2023-02-28T11:09:44.636Z,13.70
2023-02-28T11:14:51.589Z,15.60
2023-02-28T11:19:57.816Z,16.30
2023-02-28T11:25:03.890Z,19.30
2023-02-28T11:30:43.462Z,16.40
2023-02-28T11:35:50.211Z,19.90
2023-02-28T11:40:59.950Z,16.00
2023-02-28T11:46:42.970Z,16.00
2023-02-28T11:51:51.468Z,16.80
2023-02-28T11:57:02.178Z,14.70
2023-02-28T12:02:35.448Z,16.90
2023-02-28T12:07:51.242Z,45.30
2023-02-28T12:13:13.793Z,36.70
2023-02-28T12:19:22.456Z,128.70
2023-02-28T12:24:50.593Z,16.00
2023-02-28T12:30:20.317Z,17.20
2023-02-28T12:35:28.174Z,13.10
2023-02-28T12:40:56.305Z,15.60
2023-02-28T12:46:05.919Z,15.80
2023-02-28T12:51:09.871Z,14.60
2023-02-28T12:56:39.674Z,14.30
2023-02-28T13:02:16.145Z,16.10
2023-02-28T13:07:34.898Z,18.60
2023-02-28T13:12:52.410Z,20.50
2023-02-28T13:17:58.567Z,19.50
2023-02-28T13:23:06.947Z,18.60
2023-02-28T13:28:14.800Z,21.80
2023-02-28T13:34:17.058Z,19.70
2023-02-28T13:39:56.619Z,19.50
2023-02-28T13:45:03.372Z,18.60
2023-02-28T13:50:30.680Z,15.40
2023-02-28T13:56:19.625Z,18.20
2023-02-28T14:01:47.115Z,19.50
2023-02-28T14:06:56.461Z,19.70
2023-02-28T14:12:38.862Z,18.60
2023-02-28T14:17:42.471Z,17.80
2023-02-28T14:22:56.533Z,15.40
2023-02-28T14:28:10.538Z,16.70
2023-02-28T14:33:51.668Z,17.10
2023-02-28T14:39:13.520Z,17.30
2023-02-28T14:44:28.634Z,16.80
2023-02-28T14:49:35.960Z,14.80
2023-02-28T14:54:40.348Z,15.40
2023-02-28T14:59:44.159Z,12.40
2023-02-28T15:05:00.384Z,14.00
2023-02-28T15:10:44.600Z,13.00
2023-02-28T15:16:03.088Z,13.00
2023-02-28T15:21:51.932Z,11.20
2023-02-28T15:27:01.704Z,11.80
2023-02-28T15:32:09.470Z,13.90
2023-02-28T15:37:35.352Z,14.10
2023-02-28T15:42:39.552Z,13.70
2023-02-28T15:47:47.625Z,10.40
2023-02-28T15:52:51.953Z,12.50
2023-02-28T15:58:00.131Z,17.90
2023-02-28T16:03:24.224Z,18.60
2023-02-28T16:08:28.945Z,18.30
2023-02-28T16:13:33.898Z,30.00
2023-02-28T16:18:40.596Z,53.80
2023-02-28T16:23:44.355Z,38.00
2023-02-28T16:28:48.491Z,41.00
2023-02-28T16:33:56.882Z,115.70
2023-02-28T16:39:08.584Z,170.30
2023-02-28T16:44:36.989Z,205.90
2023-02-28T16:49:52.383Z,118.00
2023-02-28T16:55:03.363Z,124.00
2023-02-28T17:00:13.939Z,69.80
2023-02-28T17:05:18.681Z,262.10
2023-02-28T17:10:25.512Z,225.30
2023-02-28T17:15:29.277Z,157.80
2023-02-28T17:20:33.769Z,257.90
2023-02-28T17:25:38.235Z,106.30
2023-02-28T17:30:48.971Z,74.20
2023-02-28T17:35:53.915Z,69.30
2023-02-28T17:40:59.357Z,72.40
2023-02-28T17:46:03.656Z,70.90
2023-02-28T17:51:11.406Z,69.20
2023-02-28T17:56:29.257Z,81.00
2023-02-28T18:01:34.023Z,123.90
2023-02-28T18:06:53.274Z,55.40
2023-02-28T18:11:59.134Z,59.20
2023-02-28T18:17:09.216Z,54.10
2023-02-28T18:22:14.152Z,70.20
2023-02-28T18:27:23.819Z,55.10
2023-02-28T18:32:33.498Z,56.70
2023-02-28T18:37:44.277Z,84.90
2023-02-28T18:43:00.522Z,91.00
2023-02-28T18:48:13.781Z,72.50
2023-02-28T18:53:25.884Z,77.80
2023-02-28T18:58:34.693Z,81.30
2023-02-28T19:03:47.269Z,104.80
2023-02-28T19:08:58.752Z,103.10
2023-02-28T19:14:05.534Z,269.80
2023-02-28T19:19:12.337Z,164.70
2023-02-28T19:24:20.287Z,101.40
2023-02-28T19:29:27.447Z,69.30
2023-02-28T19:34:35.566Z,78.20
2023-02-28T19:39:49.182Z,73.60
2023-02-28T19:45:00.567Z,86.10
2023-02-28T19:50:07.416Z,82.60
2023-02-28T19:55:14.443Z,105.20
2023-02-28T20:00:25.794Z,91.70
2023-02-28T20:05:33.260Z,94.90
2023-02-28T20:10:42.191Z,106.90
2023-02-28T20:15:47.523Z,71.40
2023-02-28T20:20:55.131Z,93.00
2023-02-28T20:26:02.567Z,80.40
2023-02-28T20:31:20.933Z,69.00
2023-02-28T20:36:27.764Z,70.60
2023-02-28T20:41:35.523Z,76.00
2023-02-28T20:46:52.436Z,79.50
2023-02-28T20:52:01.231Z,60.50
2023-02-28T20:57:10.072Z,79.20
2023-02-28T21:02:19.573Z,75.20
2023-02-28T21:07:26.529Z,76.50
2023-02-28T21:12:33.254Z,79.10
2023-02-28T21:17:37.975Z,76.50
2023-02-28T21:22:42.533Z,116.30
2023-02-28T21:27:46.351Z,99.90
2023-02-28T21:32:51.648Z,111.70
2023-02-28T21:37:57.412Z,92.20
2023-02-28T21:43:01.248Z,85.00
2023-02-28T21:48:05.208Z,82.40
2023-02-28T21:53:13.342Z,86.90
2023-02-28T21:58:17.276Z,113.00
2023-02-28T22:03:24.697Z,81.20
2023-02-28T22:08:28.725Z,79.20
2023-02-28T22:13:34.180Z,100.80
2023-02-28T22:23:56.832Z,93.30
2023-02-28T22:29:01.531Z,278.00
2023-02-28T22:34:08.758Z,233.10
2023-02-28T22:39:12.782Z,204.20
2023-02-28T22:44:19.474Z,131.30
2023-02-28T22:49:25.462Z,134.80
2023-02-28T22:54:29.795Z,129.40
2023-02-28T22:59:34.133Z,113.70
2023-02-28T23:05:34.423Z,121.50
2023-02-28T23:10:42.254Z,111.20
2023-02-28T23:15:48.343Z,112.00
2023-02-28T23:20:52.272Z,120.70
2023-02-28T23:25:56.143Z,116.00
2023-02-28T23:31:05.073Z,107.90
2023-02-28T23:36:16.033Z,152.00
2023-02-28T23:41:22.548Z,153.00
2023-02-28T23:46:28.889Z,104.90
2023-02-28T23:51:33.263Z,92.10
2023-02-28T23:56:37.248Z,98.50
